< < Back
Terminal Aerodrome Forecast


Current Version              Previous Versions:   1  2  3  4  5  6  7  8  9  

Terminal Aerodrome Forecast

574
FTUS42 KCAE 261100
TAFCAE
TAF
KCAE 261132Z 2612/2712 25009KT P6SM FEW012 WS020/26040KT
      TEMPO 2612/2614 BKN012
     FM261500 27015G24KT P6SM SCT035
     FM262100 31014G20KT P6SM BKN040
     FM270200 03012KT P6SM OVC025
     FM270700 34004KT P6SM SCT050=



Latest METAR

891
SAUS80 KWBC 261700 RRB
MTRCAE
METAR KCAE 261656Z 28015G19KT 10SM FEW049 SCT060 28/15 A2960 RMK AO2
SLP019 T02780150


USA.gov is the U.S. government's official web portal to all federal, state and local government web resources and services.